Accueil
METAR-TAF:

METAR-TAF

Aéroports :

Albert, France

Aéroport Albert-Picardie

latitude: 49-58-21N, longitude: 002-41-29E, altitude: 111 m

Observation

Le bulletin a été fait il y a 33 minutes, à 22:30 UTC
Vent 3 kt de direction variable
Température 15°C
Humidité 77%
Pression 1024 hPa
Visibilité 10 km ou plus
Quelques nuages à une hauteur de 4800 ft
Nuages fragmentés à une hauteur de 7000 ft
Ciel couvert à une hauteur de 8000 ft

METAR: LFAQ 202230Z AUTO VRB03KT 9999 FEW048 BKN070 OVC080 15/11 Q1024

Heure: 01:03 (23:03 UTC)

Prévision

Le bulletin a été fait il y a 9 heures et 3 minutes, à 14:00 UTC
Prévision valable du 20 à 15 UTC au 20 à 24 UTC
Vent 10 kt de ouest
Visibilité 10 km ou plus
Nuages épars à une hauteur de 4500 ft
Evoluant progressivement
du 20 à 18 UTC au 20 à 20 UTC
Vent 3 kt de direction variable

TAF: LFAQ 201400Z 2015/2024 26010KT 9999 SCT045 BECMG 2018/2020 VRB03KT

Observations et prévisions météorologiques de plus de 4000 aéroports (messages METAR et TAF).

Les stations disponibles sont représentées par des disques jaunes et rouges sur la carte.

Passer la souris dessus pour voir le nom de la station.

Cliquer dessus pour voir les observations et prévisions météorologiques.

Pour changer de carte: cliquez sur les boutons verts avec une croix noire pour zoomer, sur le bouton vert avec un tiret pour effectuer un zoom arrière, ou sur les flèches vertes pour les cartes adjacentes.


METAR-TAF: